Decoded Metar for KSPF (SPEARFISH/CLYDE in SD, USA) (IATA:SPF) | Meteo·Mobile Aviation Weather
aviador You're here:

KSPF Decoded Metar

SPEARFISH/CLYDE in SD, USA
Report Time2018-08-22 01:15:00
UTC Time2018-08-22 01:32:07
Flight Rules vfr VFR
Wind010° at 05 kt
W.Decomp.*RWY 04: 3.8 kt HW 3.3 kt LCW
RWY 31: 3.3 kt HW 3.8 kt RCW
RWY 08: 0.8 kt HW 4.9 kt LCW
W.Rank010° ranks 35
Current wind is below 010° avg. (6.1)
Visibility9999 m
Phenomena:N/A
Clouds:Broken 048 Hf
Expected CloudBase > 1,600 ft AGL from Temp-Dew spread
Ceiling4,800 ft
Temp16°C (ISA +9)
Dew Point12°C (77% RH)
AAT14.8°C
QNH1026 hPa
Density Alt4,685 ft
Elevation3,898 ft
Report Wrong Elevation
Raw Report
KSPF 220115Z AUTO 01005KT 10SM BKN048 16/12 A3030 RMK AO2
PWINO=

Extra information for KSPF:More info

Metar Taf Metar & Taf Last 4 Metars F.Rules Stats Wind Profile Meteogram Temp Stats Airport Information Weather charts Add Link Nearby VenuesMetar ALERT Operation Metar Decoded Social comments

AIRNAV info for KSPF